sensor_id;sensor_type;location;lat;lon;timestamp;temperature;humidity
14735;DHT22;7458;49.002;8.472;2022-07-22T00:01:35;23.10;85.00
14735;DHT22;7458;49.002;8.472;2022-07-22T00:04:01;23.10;85.10
14735;DHT22;7458;49.002;8.472;2022-07-22T00:06:28;23.10;85.40
14735;DHT22;7458;49.002;8.472;2022-07-22T00:08:55;23.00;85.80
14735;DHT22;7458;49.002;8.472;2022-07-22T00:11:21;23.00;86.40
14735;DHT22;7458;49.002;8.472;2022-07-22T00:13:47;22.90;87.10
14735;DHT22;7458;49.002;8.472;2022-07-22T00:16:14;22.90;87.40
14735;DHT22;7458;49.002;8.472;2022-07-22T00:18:40;22.90;87.70
14735;DHT22;7458;49.002;8.472;2022-07-22T00:21:06;22.80;88.20
14735;DHT22;7458;49.002;8.472;2022-07-22T00:23:31;22.80;88.60
14735;DHT22;7458;49.002;8.472;2022-07-22T00:25:57;22.80;89.00
14735;DHT22;7458;49.002;8.472;2022-07-22T00:28:23;22.70;89.70
14735;DHT22;7458;49.002;8.472;2022-07-22T00:30:49;22.70;90.10
14735;DHT22;7458;49.002;8.472;2022-07-22T00:33:15;22.70;90.20
14735;DHT22;7458;49.002;8.472;2022-07-22T00:35:41;22.60;90.70
14735;DHT22;7458;49.002;8.472;2022-07-22T00:38:06;22.50;90.90
14735;DHT22;7458;49.002;8.472;2022-07-22T00:40:32;22.50;91.20
14735;DHT22;7458;49.002;8.472;2022-07-22T00:43:00;22.50;91.30
14735;DHT22;7458;49.002;8.472;2022-07-22T00:45:26;22.50;91.60
14735;DHT22;7458;49.002;8.472;2022-07-22T00:47:53;22.40;91.90
14735;DHT22;7458;49.002;8.472;2022-07-22T00:50:18;22.50;91.90
14735;DHT22;7458;49.002;8.472;2022-07-22T00:52:46;22.50;92.20
14735;DHT22;7458;49.002;8.472;2022-07-22T00:55:13;22.50;92.20
14735;DHT22;7458;49.002;8.472;2022-07-22T00:57:39;22.50;92.50
14735;DHT22;7458;49.002;8.472;2022-07-22T01:00:08;22.50;92.70
14735;DHT22;7458;49.002;8.472;2022-07-22T01:02:38;22.50;92.80
14735;DHT22;7458;49.002;8.472;2022-07-22T01:05:05;22.40;93.30
14735;DHT22;7458;49.002;8.472;2022-07-22T01:07:31;22.30;93.50
14735;DHT22;7458;49.002;8.472;2022-07-22T01:09:57;22.30;93.70
14735;DHT22;7458;49.002;8.472;2022-07-22T01:12:23;22.30;93.90
14735;DHT22;7458;49.002;8.472;2022-07-22T01:14:49;22.30;94.20
14735;DHT22;7458;49.002;8.472;2022-07-22T01:17:16;22.30;94.30
14735;DHT22;7458;49.002;8.472;2022-07-22T01:19:43;22.30;94.40
14735;DHT22;7458;49.002;8.472;2022-07-22T01:22:08;22.20;94.70
14735;DHT22;7458;49.002;8.472;2022-07-22T01:24:35;22.20;95.00
14735;DHT22;7458;49.002;8.472;2022-07-22T01:27:00;22.30;95.20
14735;DHT22;7458;49.002;8.472;2022-07-22T01:29:26;22.20;95.30
14735;DHT22;7458;49.002;8.472;2022-07-22T01:31:52;22.20;95.80
14735;DHT22;7458;49.002;8.472;2022-07-22T01:34:18;22.10;96.30
14735;DHT22;7458;49.002;8.472;2022-07-22T01:36:44;22.00;96.80
14735;DHT22;7458;49.002;8.472;2022-07-22T01:39:10;22.00;97.30
14735;DHT22;7458;49.002;8.472;2022-07-22T01:41:37;21.90;97.50
14735;DHT22;7458;49.002;8.472;2022-07-22T01:44:03;21.80;97.80
14735;DHT22;7458;49.002;8.472;2022-07-22T01:46:29;21.80;98.20
14735;DHT22;7458;49.002;8.472;2022-07-22T01:48:55;21.80;98.80
14735;DHT22;7458;49.002;8.472;2022-07-22T01:51:21;21.80;99.00
14735;DHT22;7458;49.002;8.472;2022-07-22T01:53:48;21.70;99.30
14735;DHT22;7458;49.002;8.472;2022-07-22T01:56:14;21.60;99.80
14735;DHT22;7458;49.002;8.472;2022-07-22T01:58:40;21.60;99.90
14735;DHT22;7458;49.002;8.472;2022-07-22T02:01:07;21.50;99.90
14735;DHT22;7458;49.002;8.472;2022-07-22T02:03:33;21.50;99.90
14735;DHT22;7458;49.002;8.472;2022-07-22T02:05:58;21.40;99.90
14735;DHT22;7458;49.002;8.472;2022-07-22T02:08:24;21.40;99.90
14735;DHT22;7458;49.002;8.472;2022-07-22T02:10:50;21.40;99.90
14735;DHT22;7458;49.002;8.472;2022-07-22T02:13:16;21.30;99.90
14735;DHT22;7458;49.002;8.472;2022-07-22T02:15:42;21.40;99.90
14735;DHT22;7458;49.002;8.472;2022-07-22T02:18:16;21.40;99.90
14735;DHT22;7458;49.002;8.472;2022-07-22T02:20:43;21.30;99.90
14735;DHT22;7458;49.002;8.472;2022-07-22T02:23:09;21.30;99.90
14735;DHT22;7458;49.002;8.472;2022-07-22T02:25:39;21.30;99.90
14735;DHT22;7458;49.002;8.472;2022-07-22T02:28:06;21.20;99.90
14735;DHT22;7458;49.002;8.472;2022-07-22T02:30:32;21.10;99.90
14735;DHT22;7458;49.002;8.472;2022-07-22T02:33:01;21.00;99.90
14735;DHT22;7458;49.002;8.472;2022-07-22T02:35:27;21.00;99.90
14735;DHT22;7458;49.002;8.472;2022-07-22T02:37:53;20.90;99.90
14735;DHT22;7458;49.002;8.472;2022-07-22T02:40:19;20.80;99.90
14735;DHT22;7458;49.002;8.472;2022-07-22T02:42:44;20.80;99.90
14735;DHT22;7458;49.002;8.472;2022-07-22T02:45:11;20.80;99.90
14735;DHT22;7458;49.002;8.472;2022-07-22T02:47:47;20.80;99.90
14735;DHT22;7458;49.002;8.472;2022-07-22T02:50:15;20.90;99.90
14735;DHT22;7458;49.002;8.472;2022-07-22T02:52:41;20.80;99.90
14735;DHT22;7458;49.002;8.472;2022-07-22T02:55:07;20.70;99.90
14735;DHT22;7458;49.002;8.472;2022-07-22T02:57:33;20.70;99.90
14735;DHT22;7458;49.002;8.472;2022-07-22T02:59:59;20.70;99.90
14735;DHT22;7458;49.002;8.472;2022-07-22T03:02:24;20.70;99.90
14735;DHT22;7458;49.002;8.472;2022-07-22T03:04:50;20.60;99.90
14735;DHT22;7458;49.002;8.472;2022-07-22T03:07:16;20.60;99.90
14735;DHT22;7458;49.002;8.472;2022-07-22T03:09:41;20.60;99.90
14735;DHT22;7458;49.002;8.472;2022-07-22T03:12:07;20.60;99.90
14735;DHT22;7458;49.002;8.472;2022-07-22T03:14:33;20.50;99.90
14735;DHT22;7458;49.002;8.472;2022-07-22T03:16:59;20.50;99.90
14735;DHT22;7458;49.002;8.472;2022-07-22T03:19:25;20.50;99.90
14735;DHT22;7458;49.002;8.472;2022-07-22T03:21:50;20.50;99.90
14735;DHT22;7458;49.002;8.472;2022-07-22T03:24:16;20.50;99.90
14735;DHT22;7458;49.002;8.472;2022-07-22T03:26:42;20.40;99.90
14735;DHT22;7458;49.002;8.472;2022-07-22T03:29:07;20.30;99.90
14735;DHT22;7458;49.002;8.472;2022-07-22T03:31:33;20.20;99.90
14735;DHT22;7458;49.002;8.472;2022-07-22T03:33:59;20.30;99.90
14735;DHT22;7458;49.002;8.472;2022-07-22T03:36:29;20.20;99.90
14735;DHT22;7458;49.002;8.472;2022-07-22T03:38:55;20.20;99.90
14735;DHT22;7458;49.002;8.472;2022-07-22T03:41:21;20.20;99.90
14735;DHT22;7458;49.002;8.472;2022-07-22T03:43:47;20.20;99.90
14735;DHT22;7458;49.002;8.472;2022-07-22T03:46:14;20.10;99.90
14735;DHT22;7458;49.002;8.472;2022-07-22T03:48:40;20.00;99.90
14735;DHT22;7458;49.002;8.472;2022-07-22T03:51:06;19.90;99.90
14735;DHT22;7458;49.002;8.472;2022-07-22T03:53:32;20.00;99.90
14735;DHT22;7458;49.002;8.472;2022-07-22T03:55:59;20.00;99.90
14735;DHT22;7458;49.002;8.472;2022-07-22T03:58:25;20.20;99.90
14735;DHT22;7458;49.002;8.472;2022-07-22T04:00:52;20.10;99.90
14735;DHT22;7458;49.002;8.472;2022-07-22T04:03:19;20.10;99.90
14735;DHT22;7458;49.002;8.472;2022-07-22T04:05:45;22.10;99.90
14735;DHT22;7458;49.002;8.472;2022-07-22T04:08:11;20.00;99.90
14735;DHT22;7458;49.002;8.472;2022-07-22T04:10:38;20.10;99.90
14735;DHT22;7458;49.002;8.472;2022-07-22T04:13:04;20.10;99.90
14735;DHT22;7458;49.002;8.472;2022-07-22T04:15:30;19.90;99.90
14735;DHT22;7458;49.002;8.472;2022-07-22T04:17:56;19.90;99.90
14735;DHT22;7458;49.002;8.472;2022-07-22T04:20:21;20.00;99.90
14735;DHT22;7458;49.002;8.472;2022-07-22T04:22:48;20.00;99.90
14735;DHT22;7458;49.002;8.472;2022-07-22T04:25:14;19.90;99.90
14735;DHT22;7458;49.002;8.472;2022-07-22T04:27:40;19.90;99.90
14735;DHT22;7458;49.002;8.472;2022-07-22T04:30:06;19.90;99.90
14735;DHT22;7458;49.002;8.472;2022-07-22T04:32:33;19.90;99.90
14735;DHT22;7458;49.002;8.472;2022-07-22T04:34:58;19.90;99.90
14735;DHT22;7458;49.002;8.472;2022-07-22T04:37:24;20.00;99.90
14735;DHT22;7458;49.002;8.472;2022-07-22T04:39:50;20.00;99.90
14735;DHT22;7458;49.002;8.472;2022-07-22T04:42:16;20.00;99.90
14735;DHT22;7458;49.002;8.472;2022-07-22T04:44:42;20.00;99.90
14735;DHT22;7458;49.002;8.472;2022-07-22T04:47:10;20.10;99.90
14735;DHT22;7458;49.002;8.472;2022-07-22T04:49:37;20.10;99.90
14735;DHT22;7458;49.002;8.472;2022-07-22T04:52:03;20.00;99.90
14735;DHT22;7458;49.002;8.472;2022-07-22T04:54:29;20.10;99.90
14735;DHT22;7458;49.002;8.472;2022-07-22T04:56:55;20.10;99.90
14735;DHT22;7458;49.002;8.472;2022-07-22T04:59:21;20.20;99.90
14735;DHT22;7458;49.002;8.472;2022-07-22T05:01:46;20.20;99.90
14735;DHT22;7458;49.002;8.472;2022-07-22T05:04:12;20.30;99.90
14735;DHT22;7458;49.002;8.472;2022-07-22T05:06:38;20.20;99.90
14735;DHT22;7458;49.002;8.472;2022-07-22T05:09:04;20.20;99.90
14735;DHT22;7458;49.002;8.472;2022-07-22T05:11:30;20.30;99.90
14735;DHT22;7458;49.002;8.472;2022-07-22T05:13:56;20.40;99.90
14735;DHT22;7458;49.002;8.472;2022-07-22T05:16:22;20.40;99.90
14735;DHT22;7458;49.002;8.472;2022-07-22T05:18:48;20.50;99.90
14735;DHT22;7458;49.002;8.472;2022-07-22T05:21:14;20.50;99.90
14735;DHT22;7458;49.002;8.472;2022-07-22T05:23:39;20.40;99.90
14735;DHT22;7458;49.002;8.472;2022-07-22T05:26:05;20.50;99.90
14735;DHT22;7458;49.002;8.472;2022-07-22T05:28:31;20.50;99.90
14735;DHT22;7458;49.002;8.472;2022-07-22T05:30:57;20.40;99.90
14735;DHT22;7458;49.002;8.472;2022-07-22T05:33:23;20.50;99.90
14735;DHT22;7458;49.002;8.472;2022-07-22T05:35:48;20.50;99.90
14735;DHT22;7458;49.002;8.472;2022-07-22T05:38:14;20.60;99.90
14735;DHT22;7458;49.002;8.472;2022-07-22T05:40:40;20.60;99.90
14735;DHT22;7458;49.002;8.472;2022-07-22T05:43:06;20.70;99.90
14735;DHT22;7458;49.002;8.472;2022-07-22T05:45:32;20.70;99.90
14735;DHT22;7458;49.002;8.472;2022-07-22T05:47:58;20.70;99.90
14735;DHT22;7458;49.002;8.472;2022-07-22T05:50:24;20.90;99.90
14735;DHT22;7458;49.002;8.472;2022-07-22T05:52:50;20.90;99.90
14735;DHT22;7458;49.002;8.472;2022-07-22T05:55:16;20.80;99.90
14735;DHT22;7458;49.002;8.472;2022-07-22T05:57:42;20.80;99.90
14735;DHT22;7458;49.002;8.472;2022-07-22T06:00:08;21.00;99.90
14735;DHT22;7458;49.002;8.472;2022-07-22T06:02:34;21.10;99.90
14735;DHT22;7458;49.002;8.472;2022-07-22T06:05:00;21.20;99.90
14735;DHT22;7458;49.002;8.472;2022-07-22T06:07:26;21.30;99.90
14735;DHT22;7458;49.002;8.472;2022-07-22T06:09:53;21.40;99.90
14735;DHT22;7458;49.002;8.472;2022-07-22T06:12:20;21.30;99.90
14735;DHT22;7458;49.002;8.472;2022-07-22T06:14:46;21.40;99.90
14735;DHT22;7458;49.002;8.472;2022-07-22T06:17:12;22.10;99.90
14735;DHT22;7458;49.002;8.472;2022-07-22T06:19:39;23.80;99.90
14735;DHT22;7458;49.002;8.472;2022-07-22T06:22:04;25.20;99.90
14735;DHT22;7458;49.002;8.472;2022-07-22T06:24:30;27.10;99.60
14735;DHT22;7458;49.002;8.472;2022-07-22T06:26:56;28.60;94.40
14735;DHT22;7458;49.002;8.472;2022-07-22T06:29:22;28.80;87.20
14735;DHT22;7458;49.002;8.472;2022-07-22T06:31:48;29.50;81.70
14735;DHT22;7458;49.002;8.472;2022-07-22T06:34:14;30.40;77.50
14735;DHT22;7458;49.002;8.472;2022-07-22T06:36:40;30.60;70.50
14735;DHT22;7458;49.002;8.472;2022-07-22T06:39:06;31.30;68.20
14735;DHT22;7458;49.002;8.472;2022-07-22T06:41:32;31.50;62.90
14735;DHT22;7458;49.002;8.472;2022-07-22T06:43:58;31.90;60.20
14735;DHT22;7458;49.002;8.472;2022-07-22T06:46:23;31.80;58.20
14735;DHT22;7458;49.002;8.472;2022-07-22T06:48:49;32.40;57.50
14735;DHT22;7458;49.002;8.472;2022-07-22T06:51:15;33.00;56.20
14735;DHT22;7458;49.002;8.472;2022-07-22T06:53:41;33.50;54.20
14735;DHT22;7458;49.002;8.472;2022-07-22T06:56:07;33.70;52.00
14735;DHT22;7458;49.002;8.472;2022-07-22T06:58:35;33.60;51.30
14735;DHT22;7458;49.002;8.472;2022-07-22T07:01:01;33.40;51.30
14735;DHT22;7458;49.002;8.472;2022-07-22T07:03:27;33.20;51.40
14735;DHT22;7458;49.002;8.472;2022-07-22T07:05:53;33.60;50.70
14735;DHT22;7458;49.002;8.472;2022-07-22T07:08:19;34.00;49.70
14735;DHT22;7458;49.002;8.472;2022-07-22T07:10:44;34.30;48.40
14735;DHT22;7458;49.002;8.472;2022-07-22T07:13:10;34.30;48.20
14735;DHT22;7458;49.002;8.472;2022-07-22T07:15:36;32.50;48.10
14735;DHT22;7458;49.002;8.472;2022-07-22T07:18:02;33.20;50.10
14735;DHT22;7458;49.002;8.472;2022-07-22T07:20:28;32.30;52.60
14735;DHT22;7458;49.002;8.472;2022-07-22T07:22:54;32.00;53.80
14735;DHT22;7458;49.002;8.472;2022-07-22T07:25:21;31.70;53.90
14735;DHT22;7458;49.002;8.472;2022-07-22T07:27:47;31.10;54.60
14735;DHT22;7458;49.002;8.472;2022-07-22T07:30:12;31.10;55.10
14735;DHT22;7458;49.002;8.472;2022-07-22T07:32:38;30.70;55.70
14735;DHT22;7458;49.002;8.472;2022-07-22T07:35:05;31.00;55.70
14735;DHT22;7458;49.002;8.472;2022-07-22T07:37:32;30.40;54.70
14735;DHT22;7458;49.002;8.472;2022-07-22T07:39:58;30.30;56.30
14735;DHT22;7458;49.002;8.472;2022-07-22T07:42:24;30.70;56.30
14735;DHT22;7458;49.002;8.472;2022-07-22T07:44:50;30.80;56.40
14735;DHT22;7458;49.002;8.472;2022-07-22T07:47:16;30.80;56.50
14735;DHT22;7458;49.002;8.472;2022-07-22T07:49:47;30.60;56.30
14735;DHT22;7458;49.002;8.472;2022-07-22T07:52:13;30.50;57.20
14735;DHT22;7458;49.002;8.472;2022-07-22T07:54:40;30.20;57.10
14735;DHT22;7458;49.002;8.472;2022-07-22T07:57:08;30.10;57.60
14735;DHT22;7458;49.002;8.472;2022-07-22T07:59:36;29.90;58.30
14735;DHT22;7458;49.002;8.472;2022-07-22T08:02:05;29.40;59.00
14735;DHT22;7458;49.002;8.472;2022-07-22T08:04:31;29.30;59.30
14735;DHT22;7458;49.002;8.472;2022-07-22T08:06:57;29.40;59.60
14735;DHT22;7458;49.002;8.472;2022-07-22T08:09:24;29.70;59.20
14735;DHT22;7458;49.002;8.472;2022-07-22T08:11:50;29.20;59.80
14735;DHT22;7458;49.002;8.472;2022-07-22T08:14:16;29.20;59.70
14735;DHT22;7458;49.002;8.472;2022-07-22T08:16:42;29.70;59.70
14735;DHT22;7458;49.002;8.472;2022-07-22T08:19:08;29.80;59.50
14735;DHT22;7458;49.002;8.472;2022-07-22T08:21:34;29.90;58.30
14735;DHT22;7458;49.002;8.472;2022-07-22T08:24:00;29.90;58.40
14735;DHT22;7458;49.002;8.472;2022-07-22T08:26:26;30.70;58.50
14735;DHT22;7458;49.002;8.472;2022-07-22T08:28:52;30.70;57.00
14735;DHT22;7458;49.002;8.472;2022-07-22T08:31:18;30.70;56.60
14735;DHT22;7458;49.002;8.472;2022-07-22T08:33:44;30.50;56.30
14735;DHT22;7458;49.002;8.472;2022-07-22T08:36:10;30.80;56.70
14735;DHT22;7458;49.002;8.472;2022-07-22T08:38:36;30.80;56.30
14735;DHT22;7458;49.002;8.472;2022-07-22T08:41:03;31.10;56.10
14735;DHT22;7458;49.002;8.472;2022-07-22T08:43:30;31.60;55.20
14735;DHT22;7458;49.002;8.472;2022-07-22T08:46:01;32.20;54.80
14735;DHT22;7458;49.002;8.472;2022-07-22T08:48:27;32.50;53.50
14735;DHT22;7458;49.002;8.472;2022-07-22T08:50:53;31.70;53.30
14735;DHT22;7458;49.002;8.472;2022-07-22T08:53:19;31.70;53.70
14735;DHT22;7458;49.002;8.472;2022-07-22T08:55:47;31.90;54.60
14735;DHT22;7458;49.002;8.472;2022-07-22T08:58:14;31.70;54.40
14735;DHT22;7458;49.002;8.472;2022-07-22T09:00:40;31.80;54.30
14735;DHT22;7458;49.002;8.472;2022-07-22T09:03:25;32.30;53.50
14735;DHT22;7458;49.002;8.472;2022-07-22T09:05:53;32.10;53.40
14735;DHT22;7458;49.002;8.472;2022-07-22T09:08:20;32.30;53.50
14735;DHT22;7458;49.002;8.472;2022-07-22T09:10:47;32.60;53.00
14735;DHT22;7458;49.002;8.472;2022-07-22T09:13:14;32.30;53.00
14735;DHT22;7458;49.002;8.472;2022-07-22T09:15:53;32.10;53.40
14735;DHT22;7458;49.002;8.472;2022-07-22T09:18:20;32.50;52.80
14735;DHT22;7458;49.002;8.472;2022-07-22T09:20:47;32.40;52.80
14735;DHT22;7458;49.002;8.472;2022-07-22T09:23:17;31.90;53.00
14735;DHT22;7458;49.002;8.472;2022-07-22T09:25:47;31.30;54.10
14735;DHT22;7458;49.002;8.472;2022-07-22T09:28:16;31.30;55.40
14735;DHT22;7458;49.002;8.472;2022-07-22T09:30:52;31.50;55.40
14735;DHT22;7458;49.002;8.472;2022-07-22T09:33:19;31.30;54.90
14735;DHT22;7458;49.002;8.472;2022-07-22T09:35:47;31.50;55.20
14735;DHT22;7458;49.002;8.472;2022-07-22T09:38:15;31.70;55.60
14735;DHT22;7458;49.002;8.472;2022-07-22T09:40:44;31.90;54.10
14735;DHT22;7458;49.002;8.472;2022-07-22T09:43:14;32.10;54.10
14735;DHT22;7458;49.002;8.472;2022-07-22T09:45:49;31.80;54.10
14735;DHT22;7458;49.002;8.472;2022-07-22T09:48:16;31.70;54.60
14735;DHT22;7458;49.002;8.472;2022-07-22T09:50:44;31.80;55.10
14735;DHT22;7458;49.002;8.472;2022-07-22T09:53:11;31.80;54.90
14735;DHT22;7458;49.002;8.472;2022-07-22T09:55:38;31.80;54.40
14735;DHT22;7458;49.002;8.472;2022-07-22T09:58:05;32.10;54.30
14735;DHT22;7458;49.002;8.472;2022-07-22T10:00:34;32.30;54.00
14735;DHT22;7458;49.002;8.472;2022-07-22T10:03:05;32.30;53.10
14735;DHT22;7458;49.002;8.472;2022-07-22T10:05:34;32.40;53.10
14735;DHT22;7458;49.002;8.472;2022-07-22T10:08:04;32.40;52.90
14735;DHT22;7458;49.002;8.472;2022-07-22T10:10:32;32.50;52.80
14735;DHT22;7458;49.002;8.472;2022-07-22T10:13:02;32.50;52.40
14735;DHT22;7458;49.002;8.472;2022-07-22T10:15:31;32.60;52.80
14735;DHT22;7458;49.002;8.472;2022-07-22T10:18:00;32.70;51.90
14735;DHT22;7458;49.002;8.472;2022-07-22T10:20:30;32.70;51.80
14735;DHT22;7458;49.002;8.472;2022-07-22T10:25:31;32.70;52.30
14735;DHT22;7458;49.002;8.472;2022-07-22T10:28:24;33.00;51.30
14735;DHT22;7458;49.002;8.472;2022-07-22T10:31:23;33.00;50.70
14735;DHT22;7458;49.002;8.472;2022-07-22T10:33:52;32.90;50.90
14735;DHT22;7458;49.002;8.472;2022-07-22T10:36:36;33.10;50.60
14735;DHT22;7458;49.002;8.472;2022-07-22T10:39:12;33.10;51.00
14735;DHT22;7458;49.002;8.472;2022-07-22T10:41:42;33.20;50.60
14735;DHT22;7458;49.002;8.472;2022-07-22T10:44:09;33.30;50.20
14735;DHT22;7458;49.002;8.472;2022-07-22T10:46:54;33.30;50.00
14735;DHT22;7458;49.002;8.472;2022-07-22T10:49:24;33.40;49.50
14735;DHT22;7458;49.002;8.472;2022-07-22T10:54:32;33.40;49.60
14735;DHT22;7458;49.002;8.472;2022-07-22T10:56:59;33.50;49.10
14735;DHT22;7458;49.002;8.472;2022-07-22T10:59:26;33.60;49.00
14735;DHT22;7458;49.002;8.472;2022-07-22T11:01:53;33.70;49.40
14735;DHT22;7458;49.002;8.472;2022-07-22T11:04:24;33.90;48.60
14735;DHT22;7458;49.002;8.472;2022-07-22T11:06:54;33.70;48.80
14735;DHT22;7458;49.002;8.472;2022-07-22T11:09:23;33.90;49.00
14735;DHT22;7458;49.002;8.472;2022-07-22T11:11:59;34.00;48.60
14735;DHT22;7458;49.002;8.472;2022-07-22T11:14:31;34.10;47.80
14735;DHT22;7458;49.002;8.472;2022-07-22T11:17:10;34.00;47.90
14735;DHT22;7458;49.002;8.472;2022-07-22T11:19:39;34.00;47.70
14735;DHT22;7458;49.002;8.472;2022-07-22T11:22:07;33.90;47.50
14735;DHT22;7458;49.002;8.472;2022-07-22T11:24:36;34.00;48.00
14735;DHT22;7458;49.002;8.472;2022-07-22T11:27:04;34.20;47.10
14735;DHT22;7458;49.002;8.472;2022-07-22T11:29:39;34.20;46.60
14735;DHT22;7458;49.002;8.472;2022-07-22T11:32:09;34.30;47.20
14735;DHT22;7458;49.002;8.472;2022-07-22T11:34:38;34.20;46.90
14735;DHT22;7458;49.002;8.472;2022-07-22T11:37:13;34.20;47.40
14735;DHT22;7458;49.002;8.472;2022-07-22T11:39:40;34.20;47.20
14735;DHT22;7458;49.002;8.472;2022-07-22T11:42:06;34.30;47.00
14735;DHT22;7458;49.002;8.472;2022-07-22T11:44:35;34.50;47.20
14735;DHT22;7458;49.002;8.472;2022-07-22T11:47:04;34.50;46.50
14735;DHT22;7458;49.002;8.472;2022-07-22T11:49:33;34.30;46.10
14735;DHT22;7458;49.002;8.472;2022-07-22T11:52:01;34.20;46.60
14735;DHT22;7458;49.002;8.472;2022-07-22T11:54:33;34.30;46.20
14735;DHT22;7458;49.002;8.472;2022-07-22T11:56:59;34.20;45.90
14735;DHT22;7458;49.002;8.472;2022-07-22T11:59:26;34.30;46.50
14735;DHT22;7458;49.002;8.472;2022-07-22T12:01:52;34.20;46.10
14735;DHT22;7458;49.002;8.472;2022-07-22T12:04:25;34.00;46.60
14735;DHT22;7458;49.002;8.472;2022-07-22T12:06:53;34.20;46.40
14735;DHT22;7458;49.002;8.472;2022-07-22T12:09:24;34.20;46.40
14735;DHT22;7458;49.002;8.472;2022-07-22T12:11:56;34.30;45.50
14735;DHT22;7458;49.002;8.472;2022-07-22T12:14:28;34.40;46.10
14735;DHT22;7458;49.002;8.472;2022-07-22T12:19:23;34.50;46.00
14735;DHT22;7458;49.002;8.472;2022-07-22T12:27:00;34.20;46.60
14735;DHT22;7458;49.002;8.472;2022-07-22T12:29:41;34.20;45.80
14735;DHT22;7458;49.002;8.472;2022-07-22T12:32:25;34.40;46.10
14735;DHT22;7458;49.002;8.472;2022-07-22T12:35:01;34.40;45.90
14735;DHT22;7458;49.002;8.472;2022-07-22T12:37:49;34.40;45.50
14735;DHT22;7458;49.002;8.472;2022-07-22T12:40:22;34.20;44.90
14735;DHT22;7458;49.002;8.472;2022-07-22T12:43:09;34.20;45.80
14735;DHT22;7458;49.002;8.472;2022-07-22T12:45:37;34.20;45.80
14735;DHT22;7458;49.002;8.472;2022-07-22T12:50:55;34.00;46.00
14735;DHT22;7458;49.002;8.472;2022-07-22T12:53:23;34.20;45.60
14735;DHT22;7458;49.002;8.472;2022-07-22T12:58:20;34.20;45.30
14735;DHT22;7458;49.002;8.472;2022-07-22T13:00:55;34.20;45.60
14735;DHT22;7458;49.002;8.472;2022-07-22T13:03:23;34.20;45.40
14735;DHT22;7458;49.002;8.472;2022-07-22T13:05:53;34.00;45.20
14735;DHT22;7458;49.002;8.472;2022-07-22T13:08:21;33.90;45.80
14735;DHT22;7458;49.002;8.472;2022-07-22T13:10:49;33.90;45.80
14735;DHT22;7458;49.002;8.472;2022-07-22T13:13:16;34.00;45.90
14735;DHT22;7458;49.002;8.472;2022-07-22T13:15:42;33.90;45.90
14735;DHT22;7458;49.002;8.472;2022-07-22T13:18:12;33.90;45.80
14735;DHT22;7458;49.002;8.472;2022-07-22T13:20:37;33.70;45.50
14735;DHT22;7458;49.002;8.472;2022-07-22T13:23:04;33.70;45.70
14735;DHT22;7458;49.002;8.472;2022-07-22T13:25:30;33.70;46.30
14735;DHT22;7458;49.002;8.472;2022-07-22T13:27:57;33.70;45.80
14735;DHT22;7458;49.002;8.472;2022-07-22T13:30:23;33.70;46.30
14735;DHT22;7458;49.002;8.472;2022-07-22T13:32:49;33.80;45.90
14735;DHT22;7458;49.002;8.472;2022-07-22T13:35:16;33.70;45.90
14735;DHT22;7458;49.002;8.472;2022-07-22T13:37:46;33.80;45.80
14735;DHT22;7458;49.002;8.472;2022-07-22T13:40:12;33.90;45.80
14735;DHT22;7458;49.002;8.472;2022-07-22T13:42:40;33.80;44.90
14735;DHT22;7458;49.002;8.472;2022-07-22T13:45:07;33.70;45.20
14735;DHT22;7458;49.002;8.472;2022-07-22T13:47:35;33.80;45.70
14735;DHT22;7458;49.002;8.472;2022-07-22T13:50:01;33.80;45.40
14735;DHT22;7458;49.002;8.472;2022-07-22T13:52:27;33.80;45.30
14735;DHT22;7458;49.002;8.472;2022-07-22T13:54:53;33.70;45.00
14735;DHT22;7458;49.002;8.472;2022-07-22T13:57:20;33.60;45.30
14735;DHT22;7458;49.002;8.472;2022-07-22T13:59:45;33.70;45.60
14735;DHT22;7458;49.002;8.472;2022-07-22T14:02:11;33.70;45.50
14735;DHT22;7458;49.002;8.472;2022-07-22T14:04:37;33.50;45.60
14735;DHT22;7458;49.002;8.472;2022-07-22T14:07:03;33.50;45.50
14735;DHT22;7458;49.002;8.472;2022-07-22T14:09:29;33.80;46.00
14735;DHT22;7458;49.002;8.472;2022-07-22T14:11:54;33.60;44.70
14735;DHT22;7458;49.002;8.472;2022-07-22T14:14:22;33.70;45.20
14735;DHT22;7458;49.002;8.472;2022-07-22T14:16:47;33.70;45.30
14735;DHT22;7458;49.002;8.472;2022-07-22T14:19:15;33.80;45.00
14735;DHT22;7458;49.002;8.472;2022-07-22T14:21:44;33.70;45.30
14735;DHT22;7458;49.002;8.472;2022-07-22T14:24:11;33.70;45.20
14735;DHT22;7458;49.002;8.472;2022-07-22T14:26:37;33.60;45.00
14735;DHT22;7458;49.002;8.472;2022-07-22T14:29:04;33.60;45.20
14735;DHT22;7458;49.002;8.472;2022-07-22T14:31:32;33.50;44.90
14735;DHT22;7458;49.002;8.472;2022-07-22T14:33:58;33.50;45.40
14735;DHT22;7458;49.002;8.472;2022-07-22T14:36:24;33.50;45.30
14735;DHT22;7458;49.002;8.472;2022-07-22T14:38:51;33.40;44.80
14735;DHT22;7458;49.002;8.472;2022-07-22T14:41:18;33.40;45.10
14735;DHT22;7458;49.002;8.472;2022-07-22T14:43:45;33.40;45.10
14735;DHT22;7458;49.002;8.472;2022-07-22T14:46:11;33.40;45.00
14735;DHT22;7458;49.002;8.472;2022-07-22T14:48:38;33.40;45.10
14735;DHT22;7458;49.002;8.472;2022-07-22T14:51:05;33.40;45.20
14735;DHT22;7458;49.002;8.472;2022-07-22T14:53:31;33.60;44.80
14735;DHT22;7458;49.002;8.472;2022-07-22T14:55:57;33.60;44.90
14735;DHT22;7458;49.002;8.472;2022-07-22T14:58:22;33.50;45.00
14735;DHT22;7458;49.002;8.472;2022-07-22T15:00:48;33.50;44.90
14735;DHT22;7458;49.002;8.472;2022-07-22T15:03:14;33.60;44.60
14735;DHT22;7458;49.002;8.472;2022-07-22T15:05:40;33.60;44.60
14735;DHT22;7458;49.002;8.472;2022-07-22T15:08:08;33.50;44.80
14735;DHT22;7458;49.002;8.472;2022-07-22T15:10:34;33.60;45.10
14735;DHT22;7458;49.002;8.472;2022-07-22T15:13:00;33.60;45.00
14735;DHT22;7458;49.002;8.472;2022-07-22T15:15:26;33.60;44.30
14735;DHT22;7458;49.002;8.472;2022-07-22T15:17:52;33.40;44.50
14735;DHT22;7458;49.002;8.472;2022-07-22T15:20:18;33.40;44.90
14735;DHT22;7458;49.002;8.472;2022-07-22T15:22:43;33.30;45.30
14735;DHT22;7458;49.002;8.472;2022-07-22T15:25:09;33.20;45.30
14735;DHT22;7458;49.002;8.472;2022-07-22T15:27:35;33.30;45.80
14735;DHT22;7458;49.002;8.472;2022-07-22T15:30:07;33.20;45.70
14735;DHT22;7458;49.002;8.472;2022-07-22T15:32:36;33.20;46.20
14735;DHT22;7458;49.002;8.472;2022-07-22T15:35:03;33.40;46.00
14735;DHT22;7458;49.002;8.472;2022-07-22T15:37:30;33.40;46.00
14735;DHT22;7458;49.002;8.472;2022-07-22T15:39:56;33.20;46.50
14735;DHT22;7458;49.002;8.472;2022-07-22T15:42:22;33.20;45.80
14735;DHT22;7458;49.002;8.472;2022-07-22T15:44:48;33.10;45.80
14735;DHT22;7458;49.002;8.472;2022-07-22T15:47:13;33.10;46.50
14735;DHT22;7458;49.002;8.472;2022-07-22T15:49:39;33.20;46.10
14735;DHT22;7458;49.002;8.472;2022-07-22T15:52:05;33.20;46.10
14735;DHT22;7458;49.002;8.472;2022-07-22T15:54:31;33.20;46.50
14735;DHT22;7458;49.002;8.472;2022-07-22T15:56:58;33.20;46.50
14735;DHT22;7458;49.002;8.472;2022-07-22T15:59:43;33.20;46.10
14735;DHT22;7458;49.002;8.472;2022-07-22T16:02:10;33.20;45.70
14735;DHT22;7458;49.002;8.472;2022-07-22T16:04:36;33.20;45.70